sensor_id;sensor_type;location;lat;lon;timestamp;P1;durP1;ratioP1;P2;durP2;ratioP2
59872;SDS011;50750;51.636;4.948;2023-06-22T00:00:53;2.50;;;1.40;;
59872;SDS011;50750;51.636;4.948;2023-06-22T00:03:30;1.80;;;1.10;;
59872;SDS011;50750;51.636;4.948;2023-06-22T00:05:56;1.90;;;1.10;;
59872;SDS011;50750;51.636;4.948;2023-06-22T00:08:23;1.90;;;1.20;;
59872;SDS011;50750;51.636;4.948;2023-06-22T00:10:49;2.60;;;1.20;;
59872;SDS011;50750;51.636;4.948;2023-06-22T00:13:16;3.00;;;1.40;;
59872;SDS011;50750;51.636;4.948;2023-06-22T00:15:44;2.30;;;1.20;;
59872;SDS011;50750;51.636;4.948;2023-06-22T00:18:10;3.00;;;1.40;;
59872;SDS011;50750;51.636;4.948;2023-06-22T00:20:39;1.90;;;1.20;;
59872;SDS011;50750;51.636;4.948;2023-06-22T00:23:06;2.70;;;1.30;;
59872;SDS011;50750;51.636;4.948;2023-06-22T00:25:36;2.50;;;1.30;;
59872;SDS011;50750;51.636;4.948;2023-06-22T00:28:04;2.10;;;1.30;;
59872;SDS011;50750;51.636;4.948;2023-06-22T00:30:31;2.50;;;1.50;;
59872;SDS011;50750;51.636;4.948;2023-06-22T00:32:58;2.00;;;1.30;;
59872;SDS011;50750;51.636;4.948;2023-06-22T00:35:26;2.40;;;1.20;;
59872;SDS011;50750;51.636;4.948;2023-06-22T00:40:30;2.60;;;1.10;;
59872;SDS011;50750;51.636;4.948;2023-06-22T00:42:57;2.30;;;1.40;;
59872;SDS011;50750;51.636;4.948;2023-06-22T00:45:26;2.20;;;1.10;;
59872;SDS011;50750;51.636;4.948;2023-06-22T00:47:53;2.50;;;1.30;;
59872;SDS011;50750;51.636;4.948;2023-06-22T00:50:22;1.70;;;1.00;;
59872;SDS011;50750;51.636;4.948;2023-06-22T00:52:53;3.20;;;1.30;;
59872;SDS011;50750;51.636;4.948;2023-06-22T00:55:24;2.10;;;1.10;;
59872;SDS011;50750;51.636;4.948;2023-06-22T00:57:54;2.00;;;1.20;;
59872;SDS011;50750;51.636;4.948;2023-06-22T01:00:24;2.10;;;1.20;;
59872;SDS011;50750;51.636;4.948;2023-06-22T01:02:51;2.40;;;1.30;;
59872;SDS011;50750;51.636;4.948;2023-06-22T01:05:19;2.60;;;1.40;;
59872;SDS011;50750;51.636;4.948;2023-06-22T01:07:53;2.40;;;1.50;;
59872;SDS011;50750;51.636;4.948;2023-06-22T01:10:31;2.40;;;1.30;;
59872;SDS011;50750;51.636;4.948;2023-06-22T01:13:01;2.50;;;1.50;;
59872;SDS011;50750;51.636;4.948;2023-06-22T01:15:31;1.90;;;1.20;;
59872;SDS011;50750;51.636;4.948;2023-06-22T01:18:03;2.60;;;1.20;;
59872;SDS011;50750;51.636;4.948;2023-06-22T01:20:32;2.00;;;1.20;;
59872;SDS011;50750;51.636;4.948;2023-06-22T01:26:02;2.20;;;1.30;;
59872;SDS011;50750;51.636;4.948;2023-06-22T01:28:47;2.00;;;1.20;;
59872;SDS011;50750;51.636;4.948;2023-06-22T01:31:17;3.10;;;1.50;;
59872;SDS011;50750;51.636;4.948;2023-06-22T01:33:51;2.40;;;1.30;;
59872;SDS011;50750;51.636;4.948;2023-06-22T01:36:21;2.40;;;1.20;;
59872;SDS011;50750;51.636;4.948;2023-06-22T01:38:49;2.50;;;1.40;;
59872;SDS011;50750;51.636;4.948;2023-06-22T01:41:16;3.10;;;1.50;;
59872;SDS011;50750;51.636;4.948;2023-06-22T01:43:44;2.60;;;1.50;;
59872;SDS011;50750;51.636;4.948;2023-06-22T01:46:12;3.20;;;1.20;;
59872;SDS011;50750;51.636;4.948;2023-06-22T01:48:39;2.40;;;1.30;;
59872;SDS011;50750;51.636;4.948;2023-06-22T01:51:06;2.40;;;1.40;;
59872;SDS011;50750;51.636;4.948;2023-06-22T01:53:34;2.40;;;1.40;;
59872;SDS011;50750;51.636;4.948;2023-06-22T01:56:00;2.60;;;1.40;;
59872;SDS011;50750;51.636;4.948;2023-06-22T01:58:27;3.00;;;1.70;;
59872;SDS011;50750;51.636;4.948;2023-06-22T02:01:00;3.10;;;1.60;;
59872;SDS011;50750;51.636;4.948;2023-06-22T02:03:41;2.50;;;1.30;;
59872;SDS011;50750;51.636;4.948;2023-06-22T02:06:14;2.70;;;1.50;;
59872;SDS011;50750;51.636;4.948;2023-06-22T02:08:48;2.20;;;1.40;;
59872;SDS011;50750;51.636;4.948;2023-06-22T02:11:18;2.40;;;1.40;;
59872;SDS011;50750;51.636;4.948;2023-06-22T02:13:46;3.00;;;1.40;;
59872;SDS011;50750;51.636;4.948;2023-06-22T02:16:14;2.60;;;1.60;;
59872;SDS011;50750;51.636;4.948;2023-06-22T02:18:46;2.40;;;1.30;;
59872;SDS011;50750;51.636;4.948;2023-06-22T02:21:17;2.40;;;1.30;;
59872;SDS011;50750;51.636;4.948;2023-06-22T02:23:47;2.60;;;1.50;;
59872;SDS011;50750;51.636;4.948;2023-06-22T02:26:15;2.30;;;1.40;;
59872;SDS011;50750;51.636;4.948;2023-06-22T02:28:43;2.30;;;1.30;;
59872;SDS011;50750;51.636;4.948;2023-06-22T02:31:10;2.30;;;1.40;;
59872;SDS011;50750;51.636;4.948;2023-06-22T02:33:37;2.70;;;1.40;;
59872;SDS011;50750;51.636;4.948;2023-06-22T02:36:04;2.60;;;1.50;;
59872;SDS011;50750;51.636;4.948;2023-06-22T02:38:31;3.00;;;1.50;;
59872;SDS011;50750;51.636;4.948;2023-06-22T02:41:00;2.30;;;1.20;;
59872;SDS011;50750;51.636;4.948;2023-06-22T02:43:27;2.30;;;1.40;;
59872;SDS011;50750;51.636;4.948;2023-06-22T02:45:54;2.60;;;1.50;;
59872;SDS011;50750;51.636;4.948;2023-06-22T02:48:21;2.40;;;1.40;;
59872;SDS011;50750;51.636;4.948;2023-06-22T02:50:47;2.90;;;1.40;;
59872;SDS011;50750;51.636;4.948;2023-06-22T02:53:14;3.20;;;1.70;;
59872;SDS011;50750;51.636;4.948;2023-06-22T02:55:41;2.10;;;1.30;;
59872;SDS011;50750;51.636;4.948;2023-06-22T02:58:08;2.40;;;1.50;;
59872;SDS011;50750;51.636;4.948;2023-06-22T03:00:34;2.70;;;1.50;;
59872;SDS011;50750;51.636;4.948;2023-06-22T03:03:02;2.20;;;1.30;;
59872;SDS011;50750;51.636;4.948;2023-06-22T03:05:29;2.20;;;1.50;;
59872;SDS011;50750;51.636;4.948;2023-06-22T03:07:55;3.30;;;1.80;;
59872;SDS011;50750;51.636;4.948;2023-06-22T03:10:22;2.80;;;1.80;;
59872;SDS011;50750;51.636;4.948;2023-06-22T03:12:48;3.30;;;1.50;;
59872;SDS011;50750;51.636;4.948;2023-06-22T03:15:16;2.50;;;1.50;;
59872;SDS011;50750;51.636;4.948;2023-06-22T03:17:45;3.00;;;1.70;;
59872;SDS011;50750;51.636;4.948;2023-06-22T03:20:13;3.10;;;1.70;;
59872;SDS011;50750;51.636;4.948;2023-06-22T03:22:40;2.70;;;1.60;;
59872;SDS011;50750;51.636;4.948;2023-06-22T03:25:08;2.90;;;1.70;;
59872;SDS011;50750;51.636;4.948;2023-06-22T03:27:41;2.90;;;1.80;;
59872;SDS011;50750;51.636;4.948;2023-06-22T03:30:10;3.50;;;1.70;;
59872;SDS011;50750;51.636;4.948;2023-06-22T03:32:37;3.90;;;1.50;;
59872;SDS011;50750;51.636;4.948;2023-06-22T03:35:04;2.30;;;1.50;;
59872;SDS011;50750;51.636;4.948;2023-06-22T03:37:32;3.10;;;1.70;;
59872;SDS011;50750;51.636;4.948;2023-06-22T03:39:58;2.70;;;1.80;;
59872;SDS011;50750;51.636;4.948;2023-06-22T03:42:25;2.80;;;1.50;;
59872;SDS011;50750;51.636;4.948;2023-06-22T03:44:52;2.70;;;1.60;;
59872;SDS011;50750;51.636;4.948;2023-06-22T03:47:18;2.50;;;1.40;;
59872;SDS011;50750;51.636;4.948;2023-06-22T03:49:45;3.50;;;1.80;;
59872;SDS011;50750;51.636;4.948;2023-06-22T03:52:11;4.10;;;1.90;;
59872;SDS011;50750;51.636;4.948;2023-06-22T03:54:37;2.60;;;1.60;;
59872;SDS011;50750;51.636;4.948;2023-06-22T03:57:04;2.90;;;1.80;;
59872;SDS011;50750;51.636;4.948;2023-06-22T03:59:32;2.40;;;1.70;;
59872;SDS011;50750;51.636;4.948;2023-06-22T04:01:58;3.20;;;1.80;;
59872;SDS011;50750;51.636;4.948;2023-06-22T04:04:25;3.00;;;1.90;;
59872;SDS011;50750;51.636;4.948;2023-06-22T04:06:51;2.30;;;1.50;;
59872;SDS011;50750;51.636;4.948;2023-06-22T04:09:18;2.50;;;1.60;;
59872;SDS011;50750;51.636;4.948;2023-06-22T04:11:44;2.40;;;1.60;;
59872;SDS011;50750;51.636;4.948;2023-06-22T04:14:10;3.10;;;1.90;;
59872;SDS011;50750;51.636;4.948;2023-06-22T04:16:36;2.50;;;1.40;;
59872;SDS011;50750;51.636;4.948;2023-06-22T04:19:03;2.70;;;1.80;;
59872;SDS011;50750;51.636;4.948;2023-06-22T04:21:29;4.50;;;1.70;;
59872;SDS011;50750;51.636;4.948;2023-06-22T04:23:56;3.60;;;2.10;;
59872;SDS011;50750;51.636;4.948;2023-06-22T04:26:22;2.60;;;1.50;;
59872;SDS011;50750;51.636;4.948;2023-06-22T04:28:48;2.40;;;1.40;;
59872;SDS011;50750;51.636;4.948;2023-06-22T04:31:21;2.40;;;1.40;;
59872;SDS011;50750;51.636;4.948;2023-06-22T04:33:48;2.40;;;1.50;;
59872;SDS011;50750;51.636;4.948;2023-06-22T04:36:17;2.90;;;1.70;;
59872;SDS011;50750;51.636;4.948;2023-06-22T04:38:43;2.30;;;1.40;;
59872;SDS011;50750;51.636;4.948;2023-06-22T04:41:10;2.70;;;1.60;;
59872;SDS011;50750;51.636;4.948;2023-06-22T04:43:49;2.50;;;1.70;;
59872;SDS011;50750;51.636;4.948;2023-06-22T04:46:19;3.00;;;1.40;;
59872;SDS011;50750;51.636;4.948;2023-06-22T04:48:46;2.30;;;1.30;;
59872;SDS011;50750;51.636;4.948;2023-06-22T04:51:12;2.60;;;1.60;;
59872;SDS011;50750;51.636;4.948;2023-06-22T04:53:38;2.50;;;1.50;;
59872;SDS011;50750;51.636;4.948;2023-06-22T04:56:08;2.60;;;1.70;;
59872;SDS011;50750;51.636;4.948;2023-06-22T04:58:34;2.40;;;1.40;;
59872;SDS011;50750;51.636;4.948;2023-06-22T05:01:00;2.90;;;1.70;;
59872;SDS011;50750;51.636;4.948;2023-06-22T05:03:27;2.90;;;1.40;;
59872;SDS011;50750;51.636;4.948;2023-06-22T05:05:53;3.10;;;1.50;;
59872;SDS011;50750;51.636;4.948;2023-06-22T05:08:21;2.50;;;1.40;;
59872;SDS011;50750;51.636;4.948;2023-06-22T05:10:47;3.20;;;1.60;;
59872;SDS011;50750;51.636;4.948;2023-06-22T05:13:13;2.40;;;1.20;;
59872;SDS011;50750;51.636;4.948;2023-06-22T05:15:40;2.30;;;1.40;;
59872;SDS011;50750;51.636;4.948;2023-06-22T05:18:06;2.90;;;1.40;;
59872;SDS011;50750;51.636;4.948;2023-06-22T05:20:33;2.80;;;1.70;;
59872;SDS011;50750;51.636;4.948;2023-06-22T05:23:02;2.70;;;1.90;;
59872;SDS011;50750;51.636;4.948;2023-06-22T05:25:29;2.70;;;1.80;;
59872;SDS011;50750;51.636;4.948;2023-06-22T05:27:56;2.90;;;1.60;;
59872;SDS011;50750;51.636;4.948;2023-06-22T05:30:22;2.80;;;1.60;;
59872;SDS011;50750;51.636;4.948;2023-06-22T05:32:49;2.70;;;1.90;;
59872;SDS011;50750;51.636;4.948;2023-06-22T05:35:15;2.50;;;1.50;;
59872;SDS011;50750;51.636;4.948;2023-06-22T05:37:41;2.40;;;1.30;;
59872;SDS011;50750;51.636;4.948;2023-06-22T05:40:09;2.20;;;1.40;;
59872;SDS011;50750;51.636;4.948;2023-06-22T05:42:35;2.40;;;1.50;;
59872;SDS011;50750;51.636;4.948;2023-06-22T05:45:02;2.60;;;1.40;;
59872;SDS011;50750;51.636;4.948;2023-06-22T05:47:29;2.60;;;1.80;;
59872;SDS011;50750;51.636;4.948;2023-06-22T05:49:55;3.10;;;1.50;;
59872;SDS011;50750;51.636;4.948;2023-06-22T05:52:21;2.10;;;1.30;;
59872;SDS011;50750;51.636;4.948;2023-06-22T05:54:48;2.60;;;1.80;;
59872;SDS011;50750;51.636;4.948;2023-06-22T05:57:14;2.30;;;1.50;;
59872;SDS011;50750;51.636;4.948;2023-06-22T05:59:41;2.30;;;1.40;;
59872;SDS011;50750;51.636;4.948;2023-06-22T06:02:07;2.10;;;1.30;;
59872;SDS011;50750;51.636;4.948;2023-06-22T06:04:33;2.60;;;1.40;;
59872;SDS011;50750;51.636;4.948;2023-06-22T06:07:00;2.20;;;1.30;;
59872;SDS011;50750;51.636;4.948;2023-06-22T06:09:27;2.60;;;1.60;;
59872;SDS011;50750;51.636;4.948;2023-06-22T06:11:53;2.70;;;1.50;;
59872;SDS011;50750;51.636;4.948;2023-06-22T06:14:20;3.40;;;1.40;;
59872;SDS011;50750;51.636;4.948;2023-06-22T06:16:46;2.60;;;1.60;;
59872;SDS011;50750;51.636;4.948;2023-06-22T06:19:14;2.20;;;1.40;;
59872;SDS011;50750;51.636;4.948;2023-06-22T06:21:41;3.20;;;1.60;;
59872;SDS011;50750;51.636;4.948;2023-06-22T06:24:07;2.40;;;1.30;;
59872;SDS011;50750;51.636;4.948;2023-06-22T06:26:33;3.20;;;1.50;;
59872;SDS011;50750;51.636;4.948;2023-06-22T06:29:01;3.30;;;1.50;;
59872;SDS011;50750;51.636;4.948;2023-06-22T06:31:28;2.40;;;1.50;;
59872;SDS011;50750;51.636;4.948;2023-06-22T06:33:55;2.40;;;1.40;;
59872;SDS011;50750;51.636;4.948;2023-06-22T06:36:22;2.30;;;1.30;;
59872;SDS011;50750;51.636;4.948;2023-06-22T06:38:49;2.10;;;1.30;;
59872;SDS011;50750;51.636;4.948;2023-06-22T06:41:15;2.30;;;1.40;;
59872;SDS011;50750;51.636;4.948;2023-06-22T06:43:42;2.40;;;1.50;;
59872;SDS011;50750;51.636;4.948;2023-06-22T06:46:09;3.00;;;1.70;;
59872;SDS011;50750;51.636;4.948;2023-06-22T06:48:35;2.50;;;1.40;;
59872;SDS011;50750;51.636;4.948;2023-06-22T06:51:02;2.20;;;1.20;;
59872;SDS011;50750;51.636;4.948;2023-06-22T06:53:28;2.10;;;1.30;;
59872;SDS011;50750;51.636;4.948;2023-06-22T06:55:55;2.40;;;1.40;;
59872;SDS011;50750;51.636;4.948;2023-06-22T06:58:22;2.40;;;1.40;;
59872;SDS011;50750;51.636;4.948;2023-06-22T07:00:49;2.80;;;1.40;;
59872;SDS011;50750;51.636;4.948;2023-06-22T07:03:15;2.10;;;1.40;;
59872;SDS011;50750;51.636;4.948;2023-06-22T07:05:41;3.20;;;1.50;;
59872;SDS011;50750;51.636;4.948;2023-06-22T07:08:08;2.30;;;1.50;;
59872;SDS011;50750;51.636;4.948;2023-06-22T07:10:34;2.40;;;1.40;;
59872;SDS011;50750;51.636;4.948;2023-06-22T07:13:00;2.10;;;1.30;;
59872;SDS011;50750;51.636;4.948;2023-06-22T07:15:27;1.90;;;1.10;;
59872;SDS011;50750;51.636;4.948;2023-06-22T07:17:53;2.70;;;1.40;;
59872;SDS011;50750;51.636;4.948;2023-06-22T07:20:20;2.60;;;1.30;;
59872;SDS011;50750;51.636;4.948;2023-06-22T07:22:46;2.30;;;1.50;;
59872;SDS011;50750;51.636;4.948;2023-06-22T07:25:13;2.40;;;1.50;;
59872;SDS011;50750;51.636;4.948;2023-06-22T07:30:30;2.10;;;1.30;;
59872;SDS011;50750;51.636;4.948;2023-06-22T07:32:58;2.40;;;1.50;;
59872;SDS011;50750;51.636;4.948;2023-06-22T07:35:24;2.80;;;1.50;;
59872;SDS011;50750;51.636;4.948;2023-06-22T07:37:51;2.20;;;1.50;;
59872;SDS011;50750;51.636;4.948;2023-06-22T07:40:17;2.20;;;1.40;;
59872;SDS011;50750;51.636;4.948;2023-06-22T07:42:43;2.10;;;1.30;;
59872;SDS011;50750;51.636;4.948;2023-06-22T07:45:10;2.60;;;1.50;;
59872;SDS011;50750;51.636;4.948;2023-06-22T07:47:36;2.00;;;1.10;;
59872;SDS011;50750;51.636;4.948;2023-06-22T07:50:03;2.70;;;1.60;;
59872;SDS011;50750;51.636;4.948;2023-06-22T07:52:30;2.40;;;1.50;;
59872;SDS011;50750;51.636;4.948;2023-06-22T07:54:57;3.10;;;1.70;;
59872;SDS011;50750;51.636;4.948;2023-06-22T07:57:24;2.90;;;1.50;;
59872;SDS011;50750;51.636;4.948;2023-06-22T07:59:59;2.30;;;1.50;;
59872;SDS011;50750;51.636;4.948;2023-06-22T08:02:26;2.60;;;1.80;;
59872;SDS011;50750;51.636;4.948;2023-06-22T08:04:53;3.40;;;1.70;;
59872;SDS011;50750;51.636;4.948;2023-06-22T08:07:19;2.20;;;1.50;;
59872;SDS011;50750;51.636;4.948;2023-06-22T08:09:46;2.30;;;1.40;;
59872;SDS011;50750;51.636;4.948;2023-06-22T08:12:14;8.40;;;6.50;;
59872;SDS011;50750;51.636;4.948;2023-06-22T08:14:42;10.90;;;7.90;;
59872;SDS011;50750;51.636;4.948;2023-06-22T08:17:12;9.90;;;6.70;;
59872;SDS011;50750;51.636;4.948;2023-06-22T08:19:39;8.70;;;5.70;;
59872;SDS011;50750;51.636;4.948;2023-06-22T08:22:06;7.40;;;5.20;;
59872;SDS011;50750;51.636;4.948;2023-06-22T08:24:33;6.80;;;4.50;;
59872;SDS011;50750;51.636;4.948;2023-06-22T08:26:59;7.30;;;4.10;;
59872;SDS011;50750;51.636;4.948;2023-06-22T08:29:26;5.40;;;3.90;;
59872;SDS011;50750;51.636;4.948;2023-06-22T08:31:52;6.30;;;3.60;;
59872;SDS011;50750;51.636;4.948;2023-06-22T08:34:18;5.00;;;3.40;;
59872;SDS011;50750;51.636;4.948;2023-06-22T08:36:47;5.30;;;3.50;;
59872;SDS011;50750;51.636;4.948;2023-06-22T08:39:19;5.60;;;3.10;;
59872;SDS011;50750;51.636;4.948;2023-06-22T08:41:49;4.50;;;2.80;;
59872;SDS011;50750;51.636;4.948;2023-06-22T08:44:18;4.70;;;3.00;;
59872;SDS011;50750;51.636;4.948;2023-06-22T08:46:45;4.20;;;2.50;;
59872;SDS011;50750;51.636;4.948;2023-06-22T08:49:11;4.20;;;2.50;;
59872;SDS011;50750;51.636;4.948;2023-06-22T08:51:38;4.50;;;2.50;;
59872;SDS011;50750;51.636;4.948;2023-06-22T08:54:04;4.20;;;2.90;;
59872;SDS011;50750;51.636;4.948;2023-06-22T08:56:31;3.30;;;2.50;;
59872;SDS011;50750;51.636;4.948;2023-06-22T08:58:57;3.50;;;2.40;;
59872;SDS011;50750;51.636;4.948;2023-06-22T09:01:24;3.00;;;2.20;;
59872;SDS011;50750;51.636;4.948;2023-06-22T09:03:50;3.80;;;2.40;;
59872;SDS011;50750;51.636;4.948;2023-06-22T09:06:21;4.10;;;2.40;;
59872;SDS011;50750;51.636;4.948;2023-06-22T09:08:47;4.10;;;2.60;;
59872;SDS011;50750;51.636;4.948;2023-06-22T09:11:15;3.00;;;2.10;;
59872;SDS011;50750;51.636;4.948;2023-06-22T09:13:41;4.50;;;2.50;;
59872;SDS011;50750;51.636;4.948;2023-06-22T09:16:08;3.50;;;2.20;;
59872;SDS011;50750;51.636;4.948;2023-06-22T09:18:35;4.30;;;2.70;;
59872;SDS011;50750;51.636;4.948;2023-06-22T09:21:02;4.00;;;2.70;;
59872;SDS011;50750;51.636;4.948;2023-06-22T09:23:28;3.40;;;2.50;;
59872;SDS011;50750;51.636;4.948;2023-06-22T09:25:55;3.40;;;2.30;;
59872;SDS011;50750;51.636;4.948;2023-06-22T09:28:21;3.30;;;2.60;;
59872;SDS011;50750;51.636;4.948;2023-06-22T09:30:48;3.70;;;2.20;;
59872;SDS011;50750;51.636;4.948;2023-06-22T09:33:14;3.40;;;2.40;;
59872;SDS011;50750;51.636;4.948;2023-06-22T09:35:40;3.80;;;2.40;;
59872;SDS011;50750;51.636;4.948;2023-06-22T09:38:06;3.80;;;2.60;;
59872;SDS011;50750;51.636;4.948;2023-06-22T09:40:33;3.90;;;2.50;;
59872;SDS011;50750;51.636;4.948;2023-06-22T09:43:05;3.50;;;2.50;;
59872;SDS011;50750;51.636;4.948;2023-06-22T09:45:31;3.60;;;2.60;;
59872;SDS011;50750;51.636;4.948;2023-06-22T09:47:58;3.30;;;2.40;;
59872;SDS011;50750;51.636;4.948;2023-06-22T09:50:24;4.10;;;2.70;;
59872;SDS011;50750;51.636;4.948;2023-06-22T09:52:50;4.10;;;2.40;;
59872;SDS011;50750;51.636;4.948;2023-06-22T09:55:21;3.40;;;2.40;;
59872;SDS011;50750;51.636;4.948;2023-06-22T09:57:47;3.60;;;2.60;;
59872;SDS011;50750;51.636;4.948;2023-06-22T10:00:15;3.40;;;2.40;;
59872;SDS011;50750;51.636;4.948;2023-06-22T10:02:42;2.80;;;2.10;;
59872;SDS011;50750;51.636;4.948;2023-06-22T10:05:09;5.00;;;2.50;;
59872;SDS011;50750;51.636;4.948;2023-06-22T10:07:35;3.00;;;2.10;;
59872;SDS011;50750;51.636;4.948;2023-06-22T10:10:06;3.90;;;2.10;;
59872;SDS011;50750;51.636;4.948;2023-06-22T10:12:33;3.20;;;2.30;;
59872;SDS011;50750;51.636;4.948;2023-06-22T10:14:59;3.30;;;2.20;;
59872;SDS011;50750;51.636;4.948;2023-06-22T10:17:26;4.00;;;2.50;;
59872;SDS011;50750;51.636;4.948;2023-06-22T10:19:52;3.00;;;2.20;;
59872;SDS011;50750;51.636;4.948;2023-06-22T10:22:18;3.30;;;2.20;;
59872;SDS011;50750;51.636;4.948;2023-06-22T10:24:45;4.20;;;2.30;;
59872;SDS011;50750;51.636;4.948;2023-06-22T10:27:11;3.70;;;2.30;;
59872;SDS011;50750;51.636;4.948;2023-06-22T10:29:38;3.70;;;2.40;;
59872;SDS011;50750;51.636;4.948;2023-06-22T10:32:04;3.30;;;2.30;;
59872;SDS011;50750;51.636;4.948;2023-06-22T10:34:31;3.00;;;2.20;;
59872;SDS011;50750;51.636;4.948;2023-06-22T10:36:58;3.40;;;2.50;;
59872;SDS011;50750;51.636;4.948;2023-06-22T10:39:24;3.70;;;2.40;;
59872;SDS011;50750;51.636;4.948;2023-06-22T10:41:50;3.70;;;2.60;;
59872;SDS011;50750;51.636;4.948;2023-06-22T10:44:17;3.30;;;2.10;;
59872;SDS011;50750;51.636;4.948;2023-06-22T10:46:43;3.20;;;2.30;;
59872;SDS011;50750;51.636;4.948;2023-06-22T10:49:10;4.20;;;2.40;;
59872;SDS011;50750;51.636;4.948;2023-06-22T10:51:36;4.00;;;2.70;;
59872;SDS011;50750;51.636;4.948;2023-06-22T10:54:02;3.20;;;2.30;;
59872;SDS011;50750;51.636;4.948;2023-06-22T10:56:30;4.30;;;2.20;;
59872;SDS011;50750;51.636;4.948;2023-06-22T10:58:56;3.50;;;2.40;;
59872;SDS011;50750;51.636;4.948;2023-06-22T11:01:23;4.20;;;2.60;;
59872;SDS011;50750;51.636;4.948;2023-06-22T11:03:49;3.20;;;2.40;;
59872;SDS011;50750;51.636;4.948;2023-06-22T11:06:15;2.70;;;2.10;;
59872;SDS011;50750;51.636;4.948;2023-06-22T11:08:43;3.50;;;2.30;;
59872;SDS011;50750;51.636;4.948;2023-06-22T11:11:10;3.10;;;2.40;;
59872;SDS011;50750;51.636;4.948;2023-06-22T11:13:37;3.70;;;2.60;;
59872;SDS011;50750;51.636;4.948;2023-06-22T11:16:04;3.00;;;2.20;;
59872;SDS011;50750;51.636;4.948;2023-06-22T11:18:31;3.00;;;2.30;;
59872;SDS011;50750;51.636;4.948;2023-06-22T11:21:00;3.30;;;2.30;;
59872;SDS011;50750;51.636;4.948;2023-06-22T11:23:26;3.00;;;2.10;;
59872;SDS011;50750;51.636;4.948;2023-06-22T11:25:54;3.00;;;2.30;;
59872;SDS011;50750;51.636;4.948;2023-06-22T11:28:21;2.70;;;2.10;;
59872;SDS011;50750;51.636;4.948;2023-06-22T11:30:47;3.40;;;2.30;;
59872;SDS011;50750;51.636;4.948;2023-06-22T11:33:13;3.10;;;2.10;;
59872;SDS011;50750;51.636;4.948;2023-06-22T11:35:40;3.20;;;2.40;;
59872;SDS011;50750;51.636;4.948;2023-06-22T11:38:06;3.00;;;2.10;;
59872;SDS011;50750;51.636;4.948;2023-06-22T11:40:33;3.20;;;2.30;;
59872;SDS011;50750;51.636;4.948;2023-06-22T11:43:00;3.60;;;2.50;;
59872;SDS011;50750;51.636;4.948;2023-06-22T11:45:26;3.20;;;2.00;;
59872;SDS011;50750;51.636;4.948;2023-06-22T11:47:53;3.00;;;2.20;;
59872;SDS011;50750;51.636;4.948;2023-06-22T11:50:19;2.70;;;2.20;;
59872;SDS011;50750;51.636;4.948;2023-06-22T11:52:45;2.90;;;2.10;;
59872;SDS011;50750;51.636;4.948;2023-06-22T11:55:12;3.00;;;2.10;;
59872;SDS011;50750;51.636;4.948;2023-06-22T11:57:39;2.90;;;2.30;;
59872;SDS011;50750;51.636;4.948;2023-06-22T12:00:20;3.30;;;2.40;;
59872;SDS011;50750;51.636;4.948;2023-06-22T12:02:48;2.90;;;2.20;;
59872;SDS011;50750;51.636;4.948;2023-06-22T12:05:14;3.60;;;2.60;;
59872;SDS011;50750;51.636;4.948;2023-06-22T12:07:41;3.70;;;2.50;;
59872;SDS011;50750;51.636;4.948;2023-06-22T12:10:07;3.10;;;2.40;;
59872;SDS011;50750;51.636;4.948;2023-06-22T12:12:34;3.50;;;2.10;;
59872;SDS011;50750;51.636;4.948;2023-06-22T12:15:00;3.20;;;2.30;;
59872;SDS011;50750;51.636;4.948;2023-06-22T12:17:30;3.20;;;2.50;;
59872;SDS011;50750;51.636;4.948;2023-06-22T12:19:56;3.50;;;2.30;;
59872;SDS011;50750;51.636;4.948;2023-06-22T12:22:23;3.00;;;2.20;;
59872;SDS011;50750;51.636;4.948;2023-06-22T12:24:49;3.00;;;2.10;;
59872;SDS011;50750;51.636;4.948;2023-06-22T12:27:16;3.70;;;2.60;;
59872;SDS011;50750;51.636;4.948;2023-06-22T12:29:47;3.40;;;2.40;;
59872;SDS011;50750;51.636;4.948;2023-06-22T12:32:14;3.50;;;2.50;;
59872;SDS011;50750;51.636;4.948;2023-06-22T12:34:43;3.40;;;2.40;;
59872;SDS011;50750;51.636;4.948;2023-06-22T12:37:10;3.60;;;2.40;;
59872;SDS011;50750;51.636;4.948;2023-06-22T12:39:37;3.10;;;2.00;;
59872;SDS011;50750;51.636;4.948;2023-06-22T12:42:03;3.00;;;2.30;;
59872;SDS011;50750;51.636;4.948;2023-06-22T12:44:30;4.10;;;2.70;;
59872;SDS011;50750;51.636;4.948;2023-06-22T12:46:56;3.80;;;2.70;;
59872;SDS011;50750;51.636;4.948;2023-06-22T12:49:22;3.60;;;2.50;;
59872;SDS011;50750;51.636;4.948;2023-06-22T12:51:49;3.20;;;2.30;;
59872;SDS011;50750;51.636;4.948;2023-06-22T12:54:15;3.80;;;2.70;;
59872;SDS011;50750;51.636;4.948;2023-06-22T12:56:42;4.10;;;2.70;;
59872;SDS011;50750;51.636;4.948;2023-06-22T12:59:11;3.30;;;2.40;;
59872;SDS011;50750;51.636;4.948;2023-06-22T13:01:37;3.10;;;2.50;;
59872;SDS011;50750;51.636;4.948;2023-06-22T13:04:03;3.70;;;2.60;;
59872;SDS011;50750;51.636;4.948;2023-06-22T13:06:30;3.70;;;2.50;;
59872;SDS011;50750;51.636;4.948;2023-06-22T13:08:56;3.10;;;2.30;;
59872;SDS011;50750;51.636;4.948;2023-06-22T13:11:23;3.10;;;2.20;;
59872;SDS011;50750;51.636;4.948;2023-06-22T13:13:49;3.50;;;2.60;;
59872;SDS011;50750;51.636;4.948;2023-06-22T13:16:15;3.70;;;2.50;;
59872;SDS011;50750;51.636;4.948;2023-06-22T13:18:42;3.40;;;2.50;;
59872;SDS011;50750;51.636;4.948;2023-06-22T13:21:08;3.40;;;2.20;;
59872;SDS011;50750;51.636;4.948;2023-06-22T13:23:35;3.30;;;2.40;;
59872;SDS011;50750;51.636;4.948;2023-06-22T13:26:01;3.60;;;2.30;;
59872;SDS011;50750;51.636;4.948;2023-06-22T13:28:28;4.10;;;2.60;;
59872;SDS011;50750;51.636;4.948;2023-06-22T13:30:56;3.70;;;2.50;;
59872;SDS011;50750;51.636;4.948;2023-06-22T13:33:22;3.20;;;2.40;;
59872;SDS011;50750;51.636;4.948;2023-06-22T13:35:48;4.50;;;2.90;;
59872;SDS011;50750;51.636;4.948;2023-06-22T13:38:15;3.50;;;2.50;;
59872;SDS011;50750;51.636;4.948;2023-06-22T13:40:43;3.40;;;2.40;;
59872;SDS011;50750;51.636;4.948;2023-06-22T13:43:09;3.70;;;2.40;;
59872;SDS011;50750;51.636;4.948;2023-06-22T13:45:36;3.40;;;2.30;;
59872;SDS011;50750;51.636;4.948;2023-06-22T13:48:03;3.60;;;2.40;;
59872;SDS011;50750;51.636;4.948;2023-06-22T13:50:29;3.10;;;2.10;;
59872;SDS011;50750;51.636;4.948;2023-06-22T13:52:56;4.10;;;2.60;;
59872;SDS011;50750;51.636;4.948;2023-06-22T13:55:22;3.30;;;2.30;;
59872;SDS011;50750;51.636;4.948;2023-06-22T13:57:49;3.20;;;2.50;;
59872;SDS011;50750;51.636;4.948;2023-06-22T14:00:15;3.40;;;2.30;;
59872;SDS011;50750;51.636;4.948;2023-06-22T14:02:42;3.20;;;2.30;;
59872;SDS011;50750;51.636;4.948;2023-06-22T14:05:09;3.20;;;2.20;;
59872;SDS011;50750;51.636;4.948;2023-06-22T14:07:37;3.30;;;2.40;;
59872;SDS011;50750;51.636;4.948;2023-06-22T14:10:04;3.10;;;2.20;;
59872;SDS011;50750;51.636;4.948;2023-06-22T14:12:30;3.80;;;2.40;;
59872;SDS011;50750;51.636;4.948;2023-06-22T14:14:57;3.40;;;2.40;;
59872;SDS011;50750;51.636;4.948;2023-06-22T14:17:23;3.10;;;2.40;;
59872;SDS011;50750;51.636;4.948;2023-06-22T14:19:52;3.30;;;2.20;;
59872;SDS011;50750;51.636;4.948;2023-06-22T14:22:20;3.30;;;2.50;;
59872;SDS011;50750;51.636;4.948;2023-06-22T14:24:50;3.20;;;2.30;;
59872;SDS011;50750;51.636;4.948;2023-06-22T14:27:16;3.30;;;2.30;;
59872;SDS011;50750;51.636;4.948;2023-06-22T14:29:42;3.50;;;2.60;;
59872;SDS011;50750;51.636;4.948;2023-06-22T14:32:09;3.10;;;2.20;;
59872;SDS011;50750;51.636;4.948;2023-06-22T14:34:35;3.30;;;2.20;;
59872;SDS011;50750;51.636;4.948;2023-06-22T14:37:08;3.70;;;2.50;;
59872;SDS011;50750;51.636;4.948;2023-06-22T14:39:38;2.80;;;2.20;;
59872;SDS011;50750;51.636;4.948;2023-06-22T14:44:34;3.20;;;2.30;;
59872;SDS011;50750;51.636;4.948;2023-06-22T14:47:01;3.90;;;2.40;;
59872;SDS011;50750;51.636;4.948;2023-06-22T14:49:27;3.20;;;2.60;;
59872;SDS011;50750;51.636;4.948;2023-06-22T14:51:54;4.10;;;2.30;;
59872;SDS011;50750;51.636;4.948;2023-06-22T14:54:20;4.50;;;2.60;;
59872;SDS011;50750;51.636;4.948;2023-06-22T14:56:47;3.10;;;2.40;;
59872;SDS011;50750;51.636;4.948;2023-06-22T14:59:14;3.00;;;2.30;;